createdAt,value
2023-05-10T00:00:40.712Z,7.37
2023-05-10T00:03:11.430Z,7.31
2023-05-10T00:05:38.405Z,7.25
2023-05-10T00:08:05.435Z,7.20
2023-05-10T00:10:32.379Z,7.15
2023-05-10T00:12:59.248Z,7.09
2023-05-10T00:15:26.278Z,7.04
2023-05-10T00:17:53.055Z,7.01
2023-05-10T00:20:20.256Z,6.95
2023-05-10T00:22:47.099Z,6.89
2023-05-10T00:25:13.940Z,6.86
2023-05-10T00:27:40.784Z,6.82
2023-05-10T00:30:08.244Z,6.80
2023-05-10T00:32:35.739Z,6.79
2023-05-10T00:35:02.728Z,6.81
2023-05-10T00:37:29.520Z,6.84
2023-05-10T00:39:56.537Z,6.87
2023-05-10T00:42:23.373Z,6.91
2023-05-10T00:44:53.007Z,6.96
2023-05-10T00:47:19.972Z,6.98
2023-05-10T00:49:47.078Z,6.99
2023-05-10T00:52:14.134Z,7.00
2023-05-10T00:54:42.399Z,7.01
2023-05-10T00:57:09.659Z,7.03
2023-05-10T00:59:36.694Z,7.03
2023-05-10T01:02:03.689Z,7.02
2023-05-10T01:04:33.582Z,7.02
2023-05-10T01:07:00.504Z,7.05
2023-05-10T01:09:28.266Z,7.06
2023-05-10T01:11:55.968Z,7.10
2023-05-10T01:14:23.692Z,7.12
2023-05-10T01:16:50.844Z,7.11
2023-05-10T01:19:22.502Z,7.08
2023-05-10T01:22:28.295Z,7.11
2023-05-10T01:25:10.573Z,7.17
2023-05-10T01:27:37.401Z,7.20
2023-05-10T01:30:28.918Z,7.20
2023-05-10T01:33:05.936Z,7.17
2023-05-10T01:35:54.043Z,7.16
2023-05-10T01:38:40.544Z,7.11
2023-05-10T01:41:19.473Z,7.06
2023-05-10T01:43:53.484Z,7.03
2023-05-10T01:46:29.473Z,7.00
2023-05-10T01:48:59.453Z,6.97
2023-05-10T01:51:36.022Z,6.92
2023-05-10T01:54:05.318Z,6.86
2023-05-10T01:56:35.894Z,6.77
2023-05-10T01:59:07.505Z,6.68
2023-05-10T02:01:37.525Z,6.58
2023-05-10T02:04:06.916Z,6.49
2023-05-10T02:06:34.889Z,6.40
2023-05-10T02:09:03.575Z,6.31
2023-05-10T02:11:32.773Z,6.21
2023-05-10T02:14:00.845Z,6.13
2023-05-10T02:16:31.414Z,6.04
2023-05-10T02:19:00.063Z,5.94
2023-05-10T02:21:28.542Z,5.84
2023-05-10T02:23:56.212Z,5.77
2023-05-10T02:26:25.712Z,5.73
2023-05-10T02:28:53.776Z,5.69
2023-05-10T02:31:22.328Z,5.65
2023-05-10T02:33:50.431Z,5.59
2023-05-10T02:36:20.756Z,5.56
2023-05-10T02:38:50.050Z,5.55
2023-05-10T02:41:17.327Z,5.57
2023-05-10T02:43:45.973Z,5.56
2023-05-10T02:46:13.043Z,5.60
2023-05-10T02:48:40.601Z,5.67
2023-05-10T02:51:08.678Z,5.72
2023-05-10T02:53:38.998Z,5.74
2023-05-10T02:56:13.974Z,5.73
2023-05-10T02:58:41.081Z,5.71
2023-05-10T03:01:11.023Z,5.72
2023-05-10T03:03:38.979Z,5.78
2023-05-10T03:06:05.904Z,5.85
2023-05-10T03:08:32.753Z,5.94
2023-05-10T03:11:27.650Z,6.02
2023-05-10T03:14:11.711Z,6.09
2023-05-10T03:16:52.869Z,6.11
2023-05-10T03:19:40.606Z,6.08
2023-05-10T03:22:11.896Z,6.07
2023-05-10T03:24:41.865Z,6.07
2023-05-10T03:27:10.038Z,6.20
2023-05-10T03:29:38.723Z,6.87
2023-05-10T03:32:05.665Z,7.75
2023-05-10T03:34:32.646Z,8.52
2023-05-10T03:36:59.762Z,9.18
2023-05-10T03:39:28.559Z,9.75
2023-05-10T03:41:58.161Z,10.30
2023-05-10T03:44:24.999Z,10.85
2023-05-10T03:46:52.001Z,11.34
2023-05-10T03:49:19.091Z,11.86
2023-05-10T03:51:45.936Z,12.30
2023-05-10T03:54:12.913Z,12.52
2023-05-10T03:56:39.826Z,13.00
2023-05-10T03:59:09.962Z,13.37
2023-05-10T04:01:36.943Z,13.70
2023-05-10T04:04:04.447Z,14.17
2023-05-10T04:06:32.495Z,14.44
2023-05-10T04:09:05.004Z,14.98
2023-05-10T04:11:31.835Z,15.59
2023-05-10T04:13:58.586Z,16.10
2023-05-10T04:16:25.547Z,16.40
2023-05-10T04:18:52.475Z,16.83
2023-05-10T04:21:19.413Z,16.91
2023-05-10T04:23:46.252Z,16.80
2023-05-10T04:26:13.710Z,16.21
2023-05-10T04:28:40.556Z,15.49
2023-05-10T04:31:09.220Z,15.43
2023-05-10T04:33:36.898Z,15.01
2023-05-10T04:36:04.512Z,14.57
2023-05-10T04:38:31.729Z,14.14
2023-05-10T04:41:07.064Z,13.80
2023-05-10T04:43:34.304Z,13.35
2023-05-10T04:46:01.478Z,13.48
2023-05-10T04:48:28.716Z,13.96
2023-05-10T04:50:55.749Z,14.42
2023-05-10T04:53:23.023Z,14.88
2023-05-10T04:55:49.960Z,15.24
2023-05-10T04:58:16.790Z,15.62
2023-05-10T05:00:44.517Z,15.12
2023-05-10T05:03:11.490Z,15.22
2023-05-10T05:05:38.441Z,15.16
2023-05-10T05:08:05.487Z,14.92
2023-05-10T05:10:32.332Z,15.20
2023-05-10T05:12:59.230Z,15.15
2023-05-10T05:15:26.121Z,15.03
2023-05-10T05:17:53.069Z,15.00
2023-05-10T05:20:20.086Z,15.21
2023-05-10T05:22:46.950Z,15.13
2023-05-10T05:25:14.005Z,15.55
2023-05-10T05:27:40.838Z,15.92
2023-05-10T05:30:08.404Z,16.43
2023-05-10T05:32:35.286Z,16.67
2023-05-10T05:35:02.088Z,16.96
2023-05-10T05:37:28.851Z,17.47
2023-05-10T05:39:55.668Z,18.42
2023-05-10T05:42:22.403Z,18.84
2023-05-10T05:44:49.259Z,19.13
2023-05-10T05:47:16.091Z,19.20
2023-05-10T05:49:46.205Z,18.88
2023-05-10T05:52:13.255Z,18.91
2023-05-10T05:54:40.511Z,19.50
2023-05-10T05:57:08.067Z,19.88
2023-05-10T05:59:35.009Z,20.36
2023-05-10T06:02:01.803Z,20.76
2023-05-10T06:04:28.834Z,19.54
2023-05-10T06:06:55.754Z,20.88
2023-05-10T06:09:24.330Z,20.33
2023-05-10T06:11:51.063Z,20.25
2023-05-10T06:14:17.921Z,20.49
2023-05-10T06:16:44.770Z,21.03
2023-05-10T06:19:11.594Z,21.88
2023-05-10T06:21:38.541Z,22.50
2023-05-10T06:24:07.237Z,21.90
2023-05-10T06:26:34.377Z,21.27
2023-05-10T06:29:01.809Z,21.20
2023-05-10T06:31:28.695Z,22.30
2023-05-10T06:33:56.764Z,23.04
2023-05-10T06:36:25.528Z,23.59
2023-05-10T06:38:52.383Z,22.59
2023-05-10T06:41:19.218Z,23.07
2023-05-10T06:43:46.055Z,23.38
2023-05-10T06:46:12.905Z,22.80
2023-05-10T06:48:39.657Z,22.39
2023-05-10T06:51:06.689Z,22.23
2023-05-10T06:53:33.740Z,22.41
2023-05-10T06:56:00.896Z,22.80
2023-05-10T06:58:28.390Z,23.11
2023-05-10T07:00:55.226Z,23.14
2023-05-10T07:03:22.173Z,21.68
2023-05-10T07:05:49.083Z,21.20
2023-05-10T07:08:15.755Z,20.75
2023-05-10T07:10:43.476Z,20.70
2023-05-10T07:13:11.191Z,20.66
2023-05-10T07:15:38.073Z,20.15
2023-05-10T07:18:06.931Z,18.92
2023-05-10T07:20:33.914Z,19.30
2023-05-10T07:23:01.373Z,19.74
2023-05-10T07:25:28.213Z,19.45
2023-05-10T07:27:55.061Z,19.44
2023-05-10T07:30:22.048Z,19.01
2023-05-10T07:32:48.878Z,19.01
2023-05-10T07:35:16.162Z,18.38
2023-05-10T07:37:43.249Z,18.21
2023-05-10T07:40:10.703Z,18.02
2023-05-10T07:42:37.542Z,18.33
2023-05-10T07:45:05.000Z,18.50
2023-05-10T07:47:31.746Z,18.51
2023-05-10T07:49:58.679Z,18.59
2023-05-10T07:52:25.626Z,18.53
2023-05-10T07:54:52.463Z,18.62
2023-05-10T07:57:19.327Z,18.51
2023-05-10T07:59:46.159Z,18.66
2023-05-10T08:02:13.064Z,18.19
2023-05-10T08:04:40.067Z,17.71
2023-05-10T08:07:07.088Z,17.31
2023-05-10T08:09:34.047Z,17.25
2023-05-10T08:12:00.888Z,17.13
2023-05-10T08:14:29.352Z,16.82
2023-05-10T08:16:56.812Z,17.06
2023-05-10T08:19:24.177Z,16.92
2023-05-10T08:21:51.517Z,17.21
2023-05-10T08:24:18.361Z,17.34
2023-05-10T08:26:45.308Z,17.80
2023-05-10T08:29:12.149Z,18.17
2023-05-10T08:31:38.884Z,18.73
2023-05-10T08:34:05.933Z,18.20
2023-05-10T08:36:32.887Z,17.48
2023-05-10T08:38:59.846Z,17.48
2023-05-10T08:41:27.222Z,17.28
2023-05-10T08:43:55.043Z,17.29
2023-05-10T08:46:23.476Z,17.65
2023-05-10T08:48:52.733Z,17.73
2023-05-10T08:51:24.381Z,17.55
2023-05-10T08:53:52.045Z,17.48
2023-05-10T08:56:20.756Z,17.47
2023-05-10T08:58:47.893Z,16.77
2023-05-10T09:01:17.443Z,16.73
2023-05-10T09:03:46.415Z,16.50
2023-05-10T09:06:14.240Z,15.87
2023-05-10T09:08:43.347Z,15.77
2023-05-10T09:11:11.412Z,15.53
2023-05-10T09:13:38.657Z,15.72
2023-05-10T09:16:17.510Z,15.44
2023-05-10T09:18:47.749Z,15.56
2023-05-10T09:21:14.651Z,15.75
2023-05-10T09:23:48.427Z,15.89
2023-05-10T09:26:16.633Z,15.66
2023-05-10T09:28:55.838Z,15.17
2023-05-10T09:31:24.225Z,15.44
2023-05-10T09:33:51.804Z,15.82
2023-05-10T09:36:18.952Z,15.82
2023-05-10T09:38:47.438Z,16.11
2023-05-10T09:41:23.941Z,16.37
2023-05-10T09:43:55.653Z,16.74
2023-05-10T09:46:26.637Z,16.41
2023-05-10T09:48:53.435Z,16.64
2023-05-10T09:51:22.021Z,16.87
2023-05-10T09:54:08.997Z,16.96
2023-05-10T09:56:37.957Z,17.17
2023-05-10T09:59:06.305Z,17.00
2023-05-10T10:01:34.803Z,16.93
2023-05-10T10:04:06.105Z,16.61
2023-05-10T10:06:40.357Z,16.60
2023-05-10T10:09:08.449Z,16.89
2023-05-10T10:11:36.796Z,17.10
2023-05-10T10:14:03.738Z,17.29
2023-05-10T10:16:31.420Z,17.28
2023-05-10T10:18:58.868Z,17.21
2023-05-10T10:21:26.428Z,17.31
2023-05-10T10:23:53.569Z,17.20
2023-05-10T10:26:22.148Z,17.26
2023-05-10T10:29:30.872Z,17.43
2023-05-10T10:32:21.345Z,17.42
2023-05-10T10:34:48.931Z,17.20
2023-05-10T10:37:15.875Z,17.03
2023-05-10T10:39:42.818Z,17.21
2023-05-10T10:42:09.912Z,17.31
2023-05-10T10:44:38.838Z,17.36
2023-05-10T10:47:24.968Z,17.46
2023-05-10T10:50:04.395Z,17.65
2023-05-10T10:52:33.485Z,17.60
2023-05-10T10:55:10.879Z,17.07
2023-05-10T10:57:50.309Z,17.29
2023-05-10T11:00:27.471Z,17.47
2023-05-10T11:02:56.631Z,17.76
2023-05-10T11:05:36.759Z,18.02
2023-05-10T11:08:28.170Z,18.24
2023-05-10T11:11:01.050Z,17.87
2023-05-10T11:13:30.550Z,17.91
2023-05-10T11:15:59.308Z,18.05
2023-05-10T11:18:26.215Z,18.19
2023-05-10T11:21:00.487Z,18.09
2023-05-10T11:23:40.349Z,17.82
2023-05-10T11:26:12.033Z,17.55
2023-05-10T11:28:43.349Z,17.28
2023-05-10T11:31:10.723Z,17.35
2023-05-10T11:33:48.907Z,17.66
2023-05-10T11:36:18.120Z,17.75
2023-05-10T11:38:45.682Z,17.93
2023-05-10T11:41:13.953Z,17.97
2023-05-10T11:43:41.106Z,17.95
2023-05-10T11:46:10.768Z,18.01
2023-05-10T11:48:42.127Z,17.92
2023-05-10T11:51:10.533Z,17.90
2023-05-10T11:53:38.604Z,17.94
2023-05-10T11:56:08.122Z,18.01
2023-05-10T11:58:36.586Z,18.09
2023-05-10T12:01:04.860Z,18.00
2023-05-10T12:03:32.154Z,17.94
2023-05-10T12:06:01.087Z,17.97
2023-05-10T12:08:31.428Z,18.04
2023-05-10T12:11:10.871Z,18.16
2023-05-10T12:13:42.337Z,18.20
2023-05-10T12:16:19.985Z,18.19
2023-05-10T12:18:54.057Z,18.22
2023-05-10T12:21:22.001Z,18.25
2023-05-10T12:23:54.992Z,18.31
2023-05-10T12:26:23.771Z,18.31
2023-05-10T12:28:50.722Z,18.24
2023-05-10T12:31:17.606Z,18.19
2023-05-10T12:33:45.733Z,18.17
2023-05-10T12:36:16.371Z,17.98
2023-05-10T12:38:45.097Z,17.86
2023-05-10T12:41:17.356Z,17.84
2023-05-10T12:43:48.664Z,17.86
2023-05-10T12:46:18.264Z,17.93
2023-05-10T12:48:46.867Z,18.06
2023-05-10T12:51:16.053Z,18.20
2023-05-10T12:53:45.634Z,18.26
2023-05-10T12:56:13.630Z,18.35
2023-05-10T12:58:41.375Z,18.22
2023-05-10T13:01:08.981Z,18.06
2023-05-10T13:03:36.617Z,17.76
2023-05-10T13:06:06.322Z,17.63
2023-05-10T13:08:34.170Z,17.14
2023-05-10T13:11:02.462Z,17.31
2023-05-10T13:13:29.306Z,17.29
2023-05-10T13:15:56.045Z,17.21
2023-05-10T13:18:22.871Z,17.19
2023-05-10T13:20:50.241Z,17.13
2023-05-10T13:23:17.086Z,17.10
2023-05-10T13:25:43.928Z,16.95
2023-05-10T13:28:10.688Z,16.84
2023-05-10T13:30:37.504Z,16.85
2023-05-10T13:33:04.518Z,16.92
2023-05-10T13:35:31.402Z,16.92
2023-05-10T13:37:58.446Z,16.96
2023-05-10T13:40:25.490Z,17.05
2023-05-10T13:42:53.461Z,17.08
2023-05-10T13:45:20.375Z,17.19
2023-05-10T13:47:47.716Z,17.29
2023-05-10T13:50:14.704Z,17.40
2023-05-10T13:52:41.569Z,17.42
2023-05-10T13:55:09.107Z,17.44
2023-05-10T13:57:39.123Z,17.39
2023-05-10T14:00:06.933Z,17.13
2023-05-10T14:02:34.950Z,17.19
2023-05-10T14:05:01.907Z,16.99
2023-05-10T14:07:28.643Z,16.95
2023-05-10T14:09:55.485Z,16.93
2023-05-10T14:12:22.439Z,16.91
2023-05-10T14:14:49.374Z,16.91
2023-05-10T14:17:16.626Z,16.87
2023-05-10T14:19:43.675Z,16.87
2023-05-10T14:22:10.724Z,16.80
2023-05-10T14:24:38.588Z,16.82
2023-05-10T14:27:06.349Z,16.84
2023-05-10T14:29:33.500Z,16.69
2023-05-10T14:32:00.687Z,16.64
2023-05-10T14:34:27.492Z,16.66
2023-05-10T14:36:54.345Z,16.70
2023-05-10T14:39:21.876Z,16.70
2023-05-10T14:41:49.147Z,16.69
2023-05-10T14:44:15.987Z,16.68
2023-05-10T14:46:43.145Z,16.64
2023-05-10T14:49:09.982Z,16.58
2023-05-10T14:51:37.433Z,16.52
2023-05-10T14:54:04.387Z,16.54
2023-05-10T14:56:31.631Z,16.52
2023-05-10T14:58:58.484Z,16.43
2023-05-10T15:01:25.901Z,16.42
2023-05-10T15:03:53.435Z,16.41
2023-05-10T15:06:30.680Z,16.42
2023-05-10T15:08:57.514Z,16.43
2023-05-10T15:11:24.456Z,16.44
2023-05-10T15:13:51.202Z,16.44
2023-05-10T15:16:18.126Z,16.40
2023-05-10T15:18:45.379Z,16.34
2023-05-10T15:21:12.539Z,16.27
2023-05-10T15:23:39.488Z,16.22
2023-05-10T15:26:06.428Z,16.16
2023-05-10T15:28:34.282Z,16.13
2023-05-10T15:31:01.473Z,16.05
2023-05-10T15:33:29.208Z,15.94
2023-05-10T15:35:56.167Z,15.83
2023-05-10T15:38:23.105Z,15.73
2023-05-10T15:40:49.966Z,15.64
2023-05-10T15:43:16.788Z,15.58
2023-05-10T15:45:43.730Z,15.51
2023-05-10T15:48:10.670Z,15.46
2023-05-10T15:50:37.724Z,15.42
2023-05-10T15:53:04.567Z,15.37
2023-05-10T15:55:31.823Z,15.34
2023-05-10T15:57:58.663Z,15.30
2023-05-10T16:00:25.514Z,15.26
2023-05-10T16:02:53.567Z,15.21
2023-05-10T16:05:20.668Z,15.15
2023-05-10T16:07:48.694Z,15.08
2023-05-10T16:10:15.856Z,15.02
2023-05-10T16:12:42.804Z,14.97
2023-05-10T16:15:10.250Z,14.91
2023-05-10T16:17:37.147Z,14.87
2023-05-10T16:20:05.470Z,14.82
2023-05-10T16:22:32.406Z,14.79
2023-05-10T16:24:59.565Z,14.76
2023-05-10T16:27:29.495Z,14.70
2023-05-10T16:29:56.215Z,14.64
2023-05-10T16:32:23.239Z,14.58
2023-05-10T16:34:50.113Z,14.51
2023-05-10T16:37:17.047Z,14.40
2023-05-10T16:39:43.989Z,14.35
2023-05-10T16:42:11.012Z,14.29
2023-05-10T16:44:38.084Z,14.23
2023-05-10T16:47:04.956Z,14.14
2023-05-10T16:49:31.769Z,14.06
2023-05-10T16:51:59.338Z,13.95
2023-05-10T16:54:26.397Z,13.87
2023-05-10T16:56:54.039Z,13.77
2023-05-10T16:59:20.952Z,13.67
2023-05-10T17:01:47.834Z,13.58
2023-05-10T17:04:16.143Z,13.49
2023-05-10T17:06:43.395Z,13.42
2023-05-10T17:09:11.424Z,13.34
2023-05-10T17:11:38.782Z,13.26
2023-05-10T17:14:05.729Z,13.18
2023-05-10T17:16:32.624Z,13.08
2023-05-10T17:18:59.569Z,13.00
2023-05-10T17:21:26.970Z,12.89
2023-05-10T17:23:53.810Z,12.77
2023-05-10T17:26:22.300Z,12.64
2023-05-10T17:28:50.327Z,12.49
2023-05-10T17:31:17.954Z,12.36
2023-05-10T17:33:44.771Z,12.24
2023-05-10T17:36:12.219Z,12.10
2023-05-10T17:38:38.973Z,11.91
2023-05-10T17:41:06.009Z,11.74
2023-05-10T17:43:32.851Z,11.63
2023-05-10T17:45:59.732Z,11.54
2023-05-10T17:48:26.637Z,11.45
2023-05-10T17:50:53.597Z,11.37
2023-05-10T17:53:20.631Z,11.31
2023-05-10T17:55:47.670Z,11.22
2023-05-10T17:58:14.827Z,11.14
2023-05-10T18:00:41.660Z,11.06
2023-05-10T18:03:08.479Z,10.98
2023-05-10T18:05:38.754Z,10.88
2023-05-10T18:08:06.795Z,10.75
2023-05-10T18:10:33.738Z,10.58
2023-05-10T18:13:01.925Z,10.45
2023-05-10T18:15:28.757Z,10.33
2023-05-10T18:17:56.266Z,10.19
2023-05-10T18:20:23.200Z,10.08
2023-05-10T18:22:50.104Z,9.95
2023-05-10T18:25:17.565Z,9.82
2023-05-10T18:27:44.723Z,9.69
2023-05-10T18:30:12.633Z,9.58
2023-05-10T18:32:40.474Z,9.47
2023-05-10T18:35:08.109Z,9.39
2023-05-10T18:37:35.969Z,9.28
2023-05-10T18:40:04.450Z,9.16
2023-05-10T18:42:31.495Z,9.06
2023-05-10T18:44:58.445Z,9.00
2023-05-10T18:47:26.223Z,8.95
2023-05-10T18:49:53.150Z,8.88
2023-05-10T18:52:20.002Z,8.80
2023-05-10T18:54:47.349Z,8.70
2023-05-10T18:57:14.184Z,8.57
2023-05-10T18:59:41.236Z,8.42
2023-05-10T19:02:08.202Z,8.33
2023-05-10T19:04:35.249Z,8.20
2023-05-10T19:07:02.996Z,8.05
2023-05-10T19:09:30.154Z,7.93
2023-05-10T19:11:57.088Z,7.82
2023-05-10T19:14:24.954Z,7.72
2023-05-10T19:16:53.589Z,7.61
2023-05-10T19:19:20.899Z,7.50
2023-05-10T19:21:47.838Z,7.42
2023-05-10T19:24:14.882Z,7.36
2023-05-10T19:26:41.744Z,7.28
2023-05-10T19:29:08.989Z,7.19
2023-05-10T19:31:35.875Z,7.09
2023-05-10T19:34:05.985Z,7.01
2023-05-10T19:36:32.877Z,6.96
2023-05-10T19:38:59.822Z,6.91
2023-05-10T19:41:26.786Z,6.86
2023-05-10T19:43:53.814Z,6.85
2023-05-10T19:46:20.660Z,6.86
2023-05-10T19:48:47.606Z,6.89
2023-05-10T19:51:15.275Z,6.90
2023-05-10T19:53:44.224Z,6.88
2023-05-10T19:56:12.121Z,6.86
2023-05-10T19:58:39.900Z,6.85
2023-05-10T20:01:07.163Z,6.83
2023-05-10T20:03:35.626Z,6.83
2023-05-10T20:06:03.386Z,6.83
2023-05-10T20:08:30.534Z,6.84
2023-05-10T20:10:58.616Z,6.85
2023-05-10T20:13:25.765Z,6.86
2023-05-10T20:15:59.265Z,6.91
2023-05-10T20:18:26.787Z,6.97
2023-05-10T20:20:54.788Z,7.01
2023-05-10T20:23:22.484Z,7.06
2023-05-10T20:25:49.704Z,7.10
2023-05-10T20:28:26.707Z,7.11
2023-05-10T20:30:54.764Z,7.11
2023-05-10T20:33:22.408Z,7.11
2023-05-10T20:35:50.815Z,7.13
2023-05-10T20:38:17.831Z,7.14
2023-05-10T20:40:44.997Z,7.14
2023-05-10T20:43:12.134Z,7.14
2023-05-10T20:45:39.080Z,7.10
2023-05-10T20:48:06.281Z,7.05
2023-05-10T20:50:33.272Z,6.99
2023-05-10T20:53:00.726Z,6.92
2023-05-10T20:55:28.113Z,6.87
2023-05-10T20:57:55.042Z,6.84
2023-05-10T21:00:21.792Z,6.82
2023-05-10T21:02:48.766Z,6.82
2023-05-10T21:05:17.112Z,6.81
2023-05-10T21:07:44.035Z,6.76
2023-05-10T21:10:11.496Z,6.72
2023-05-10T21:12:38.747Z,6.68
2023-05-10T21:15:06.302Z,6.66
2023-05-10T21:17:33.106Z,6.63
2023-05-10T21:19:59.897Z,6.57
2023-05-10T21:22:26.726Z,6.54
2023-05-10T21:24:53.471Z,6.57
2023-05-10T21:27:20.535Z,6.60
2023-05-10T21:29:47.373Z,6.64
2023-05-10T21:32:14.414Z,6.65
2023-05-10T21:34:41.358Z,6.63
2023-05-10T21:37:08.602Z,6.66
2023-05-10T21:39:35.551Z,6.71
2023-05-10T21:42:03.141Z,6.80
2023-05-10T21:44:31.179Z,6.88
2023-05-10T21:46:57.918Z,6.96
2023-05-10T21:49:24.971Z,7.06
2023-05-10T21:51:51.811Z,7.07
2023-05-10T21:54:18.756Z,7.10
2023-05-10T21:56:45.493Z,7.16
2023-05-10T21:59:13.127Z,7.21
2023-05-10T22:01:40.907Z,7.25
2023-05-10T22:04:07.860Z,7.26
2023-05-10T22:06:35.111Z,7.19
2023-05-10T22:09:02.059Z,7.14
2023-05-10T22:11:28.899Z,7.10
2023-05-10T22:13:55.847Z,7.02
2023-05-10T22:16:22.738Z,6.99
2023-05-10T22:18:50.092Z,6.98
2023-05-10T22:21:17.192Z,6.93
2023-05-10T22:23:44.034Z,6.90
2023-05-10T22:26:11.375Z,6.86
2023-05-10T22:28:38.174Z,6.82
2023-05-10T22:31:10.116Z,6.76
2023-05-10T22:33:37.139Z,6.70
2023-05-10T22:36:04.801Z,6.65
2023-05-10T22:38:31.739Z,6.61
2023-05-10T22:40:58.590Z,6.57
2023-05-10T22:43:25.419Z,6.52
2023-05-10T22:45:52.681Z,6.46
2023-05-10T22:48:20.445Z,6.39
2023-05-10T22:50:47.388Z,6.33
2023-05-10T22:53:14.126Z,6.29
2023-05-10T22:55:41.384Z,6.24
2023-05-10T22:58:09.038Z,6.19
2023-05-10T23:00:36.296Z,6.16
2023-05-10T23:03:04.500Z,6.14
2023-05-10T23:05:31.611Z,6.13
2023-05-10T23:07:58.467Z,6.11
2023-05-10T23:10:25.305Z,6.09
2023-05-10T23:12:52.170Z,6.05
2023-05-10T23:15:18.990Z,5.99
2023-05-10T23:17:46.118Z,5.95
2023-05-10T23:20:13.283Z,5.93
2023-05-10T23:22:40.235Z,5.94
2023-05-10T23:25:07.887Z,5.93
2023-05-10T23:27:34.736Z,5.94
2023-05-10T23:30:01.702Z,5.96
2023-05-10T23:32:28.544Z,5.94
2023-05-10T23:34:55.380Z,5.91
2023-05-10T23:37:22.202Z,5.94
2023-05-10T23:39:49.049Z,6.01
2023-05-10T23:42:15.990Z,6.04
2023-05-10T23:44:42.818Z,6.04
2023-05-10T23:47:09.575Z,6.06
2023-05-10T23:49:37.542Z,6.02
2023-05-10T23:52:04.284Z,5.91
2023-05-10T23:54:31.020Z,5.88
2023-05-10T23:56:57.765Z,5.87
2023-05-10T23:59:24.610Z,5.90
